createdAt,value
2023-03-02T00:02:32.516Z,120.05
2023-03-02T00:05:41.990Z,120.03
2023-03-02T00:08:48.880Z,126.47
2023-03-02T00:11:55.789Z,125.02
2023-03-02T00:15:01.716Z,121.15
2023-03-02T00:18:11.203Z,116.82
2023-03-02T00:21:17.545Z,122.50
2023-03-02T00:24:24.259Z,123.12
2023-03-02T00:27:30.363Z,126.08
2023-03-02T00:30:37.140Z,134.86
2023-03-02T00:33:46.406Z,139.45
2023-03-02T00:36:53.258Z,140.43
2023-03-02T00:39:59.266Z,139.57
2023-03-02T00:43:06.144Z,138.56
2023-03-02T00:46:14.569Z,138.86
2023-03-02T00:49:23.924Z,139.91
2023-03-02T00:52:29.905Z,137.93
2023-03-02T00:55:36.478Z,139.67
2023-03-02T00:58:42.617Z,142.37
2023-03-02T01:01:58.414Z,142.51
2023-03-02T01:05:09.966Z,140.68
2023-03-02T01:08:16.904Z,133.57
2023-03-02T01:11:25.984Z,135.55
2023-03-02T01:14:34.727Z,132.16
2023-03-02T01:17:41.476Z,133.02
2023-03-02T01:20:50.601Z,136.23
2023-03-02T01:23:56.443Z,140.54
2023-03-02T01:27:06.150Z,139.07
2023-03-02T01:30:14.339Z,137.71
2023-03-02T01:33:21.460Z,138.09
2023-03-02T01:36:30.981Z,138.05
2023-03-02T01:39:37.919Z,137.39
2023-03-02T01:43:02.497Z,135.76
2023-03-02T01:46:17.363Z,137.58
2023-03-02T01:49:31.647Z,140.46
2023-03-02T01:52:43.364Z,141.04
2023-03-02T01:55:50.638Z,141.50
2023-03-02T01:59:04.330Z,138.22
2023-03-02T02:02:14.834Z,138.80
2023-03-02T02:05:28.313Z,140.25
2023-03-02T02:08:38.102Z,140.19
2023-03-02T02:11:46.095Z,143.42
2023-03-02T02:14:54.287Z,145.28
2023-03-02T02:18:01.010Z,147.05
2023-03-02T02:21:08.551Z,142.70
2023-03-02T02:24:28.081Z,141.63
2023-03-02T02:27:36.780Z,136.88
2023-03-02T02:30:46.575Z,135.61
2023-03-02T02:34:00.577Z,135.43
2023-03-02T02:37:16.531Z,134.93
2023-03-02T02:40:44.727Z,134.19
2023-03-02T02:43:58.475Z,133.84
2023-03-02T02:47:05.861Z,130.84
2023-03-02T02:50:23.744Z,132.24
2023-03-02T02:53:38.085Z,131.59
2023-03-02T02:56:47.439Z,131.79
2023-03-02T03:00:04.060Z,130.82
2023-03-02T03:03:31.986Z,130.13
2023-03-02T03:06:42.418Z,131.50
2023-03-02T03:10:03.490Z,132.81
2023-03-02T03:13:11.416Z,132.02
2023-03-02T03:16:24.057Z,128.05
2023-03-02T03:19:33.336Z,124.27
2023-03-02T03:22:42.219Z,121.51
2023-03-02T03:25:50.048Z,119.51
2023-03-02T03:28:57.428Z,121.72
2023-03-02T03:32:08.438Z,120.43
2023-03-02T03:35:15.762Z,117.63
2023-03-02T03:38:22.112Z,116.28
2023-03-02T03:41:30.429Z,112.12
2023-03-02T03:44:36.564Z,111.02
2023-03-02T03:47:45.798Z,113.05
2023-03-02T03:50:52.245Z,119.38
2023-03-02T03:54:08.542Z,135.52
2023-03-02T03:57:17.615Z,143.85
2023-03-02T04:00:26.260Z,164.33
2023-03-02T04:03:40.029Z,157.93
2023-03-02T04:06:47.775Z,162.17
2023-03-02T04:10:03.615Z,158.01
2023-03-02T04:13:14.141Z,148.65
2023-03-02T04:16:20.244Z,146.26
2023-03-02T04:19:29.638Z,150.24
2023-03-02T04:22:37.308Z,151.74
2023-03-02T04:25:44.191Z,141.00
2023-03-02T04:28:54.150Z,132.61
2023-03-02T04:32:01.705Z,128.45
2023-03-02T04:35:12.789Z,125.54
2023-03-02T04:38:19.781Z,129.76
2023-03-02T04:41:26.667Z,127.13
2023-03-02T04:44:33.245Z,127.44
2023-03-02T04:47:39.294Z,123.95
2023-03-02T04:50:49.019Z,121.15
2023-03-02T04:53:57.509Z,118.08
2023-03-02T04:57:04.227Z,114.78
2023-03-02T05:00:13.147Z,113.99
2023-03-02T05:03:22.242Z,118.65
2023-03-02T05:06:31.155Z,118.62
2023-03-02T05:09:39.500Z,120.71
2023-03-02T05:12:58.359Z,121.70
2023-03-02T05:16:05.175Z,127.09
2023-03-02T05:19:18.055Z,129.95
2023-03-02T05:22:27.280Z,134.78
2023-03-02T05:25:37.144Z,149.24
2023-03-02T05:28:47.077Z,158.38
2023-03-02T05:31:53.574Z,206.25
2023-03-02T05:35:00.661Z,279.77
2023-03-02T05:38:09.454Z,285.22
2023-03-02T05:41:16.062Z,249.74
2023-03-02T05:44:22.109Z,225.36
2023-03-02T05:47:28.764Z,220.76
2023-03-02T05:50:34.999Z,221.55
2023-03-02T05:53:44.180Z,260.14
2023-03-02T05:56:50.444Z,282.62
2023-03-02T05:59:57.048Z,253.77
2023-03-02T06:03:06.358Z,221.38
2023-03-02T06:06:14.453Z,189.08
2023-03-02T06:09:22.997Z,185.58
2023-03-02T06:12:29.834Z,183.00
2023-03-02T06:15:35.744Z,164.11
2023-03-02T06:18:46.149Z,160.30
2023-03-02T06:21:51.929Z,152.70
2023-03-02T06:25:01.077Z,135.44
2023-03-02T06:28:09.852Z,133.11
2023-03-02T06:31:16.451Z,134.43
2023-03-02T06:34:22.274Z,130.70
2023-03-02T06:37:28.991Z,127.06
2023-03-02T06:40:40.015Z,115.66
2023-03-02T06:43:46.840Z,110.42
2023-03-02T06:46:52.661Z,111.04
2023-03-02T06:49:59.495Z,108.13
2023-03-02T06:53:05.758Z,108.81
2023-03-02T06:56:14.979Z,107.03
2023-03-02T06:59:20.731Z,106.52
2023-03-02T07:02:27.332Z,104.64
2023-03-02T07:05:34.051Z,101.07
2023-03-02T07:08:40.635Z,94.50
2023-03-02T07:11:49.069Z,98.94
2023-03-02T07:14:55.608Z,105.98
2023-03-02T07:18:01.604Z,105.03
2023-03-02T07:21:09.334Z,100.99
2023-03-02T07:24:15.118Z,92.64
2023-03-02T07:27:24.535Z,88.65
2023-03-02T07:30:32.743Z,84.69
2023-03-02T07:33:40.257Z,84.41
2023-03-02T07:36:45.965Z,80.84
2023-03-02T07:39:54.224Z,77.10
2023-03-02T07:43:02.778Z,76.48
2023-03-02T07:46:09.706Z,73.97
2023-03-02T07:49:15.601Z,71.97
2023-03-02T07:52:22.169Z,73.18
2023-03-02T07:55:28.051Z,71.93
2023-03-02T07:58:38.902Z,71.50
2023-03-02T08:01:44.822Z,72.60
2023-03-02T08:04:52.458Z,74.02
2023-03-02T08:07:58.275Z,73.50
2023-03-02T08:11:08.943Z,75.31
2023-03-02T08:14:17.579Z,74.55
2023-03-02T08:17:24.282Z,71.30
2023-03-02T08:20:30.378Z,70.21
2023-03-02T08:23:37.327Z,67.78
2023-03-02T08:26:44.853Z,61.32
2023-03-02T08:29:54.690Z,60.40
2023-03-02T08:33:04.425Z,64.14
2023-03-02T08:36:17.837Z,62.13
2023-03-02T08:39:23.965Z,59.82
2023-03-02T08:42:30.657Z,45.62
2023-03-02T08:45:40.805Z,35.88
2023-03-02T08:48:48.305Z,33.36
2023-03-02T08:51:56.462Z,32.49
2023-03-02T08:55:04.131Z,33.04
2023-03-02T08:58:10.078Z,33.01
2023-03-02T09:01:22.184Z,32.33
2023-03-02T09:04:28.024Z,31.21
2023-03-02T09:07:35.814Z,27.85
2023-03-02T09:10:42.180Z,29.31
2023-03-02T09:13:49.162Z,29.12
2023-03-02T09:16:57.555Z,28.38
2023-03-02T09:20:04.276Z,27.87
2023-03-02T09:23:11.202Z,27.15
2023-03-02T09:26:17.968Z,26.85
2023-03-02T09:29:23.824Z,26.86
2023-03-02T09:32:33.351Z,30.24
2023-03-02T09:35:42.131Z,28.00
2023-03-02T09:38:48.803Z,26.58
2023-03-02T09:42:44.397Z,25.81
2023-03-02T09:46:11.740Z,23.23
2023-03-02T09:49:35.816Z,24.07
2023-03-02T09:52:53.668Z,23.96
2023-03-02T09:56:02.649Z,22.76
2023-03-02T09:59:24.078Z,23.56
2023-03-02T10:02:38.367Z,23.02
2023-03-02T10:05:51.163Z,23.21
2023-03-02T10:08:58.119Z,22.46
2023-03-02T10:12:45.107Z,22.18
2023-03-02T10:16:11.643Z,23.01
2023-03-02T10:19:28.699Z,22.29
2023-03-02T10:22:49.486Z,22.15
2023-03-02T10:26:05.421Z,20.92
2023-03-02T10:29:42.751Z,19.94
2023-03-02T10:32:55.084Z,21.59
2023-03-02T10:36:01.330Z,21.79
2023-03-02T10:39:19.346Z,21.00
2023-03-02T10:42:33.889Z,20.36
2023-03-02T10:45:40.567Z,21.58
2023-03-02T10:48:56.367Z,21.42
2023-03-02T10:52:08.570Z,21.42
2023-03-02T10:55:20.193Z,21.13
2023-03-02T10:58:33.624Z,19.58
2023-03-02T11:01:39.473Z,18.38
2023-03-02T11:04:46.489Z,19.43
2023-03-02T11:07:57.703Z,20.41
2023-03-02T11:11:08.310Z,20.34
2023-03-02T11:14:20.388Z,21.20
2023-03-02T11:17:37.455Z,21.12
2023-03-02T11:20:50.217Z,21.15
2023-03-02T11:24:12.407Z,22.92
2023-03-02T11:27:30.657Z,20.77
2023-03-02T11:30:49.969Z,23.70
2023-03-02T11:34:18.034Z,22.00
2023-03-02T11:37:32.994Z,21.38
2023-03-02T11:40:49.842Z,20.27
2023-03-02T11:44:04.971Z,22.04
2023-03-02T11:47:16.295Z,22.19
2023-03-02T11:50:24.341Z,69.82
2023-03-02T11:53:44.452Z,70.95
2023-03-02T11:56:51.291Z,21.85
2023-03-02T12:00:02.496Z,22.19
2023-03-02T12:03:41.553Z,32.67
2023-03-02T12:06:47.347Z,23.83
2023-03-02T12:10:07.809Z,21.83
2023-03-02T12:13:26.234Z,22.32
2023-03-02T12:16:43.254Z,21.23
2023-03-02T12:19:51.761Z,23.24
2023-03-02T12:23:11.648Z,22.13
2023-03-02T12:26:34.054Z,21.39
2023-03-02T12:29:44.325Z,21.59
2023-03-02T12:33:07.035Z,21.49
2023-03-02T12:36:28.087Z,21.50
2023-03-02T12:40:11.686Z,19.56
2023-03-02T12:43:32.718Z,19.47
2023-03-02T12:46:41.121Z,18.70
2023-03-02T12:50:00.758Z,17.73
2023-03-02T12:53:10.075Z,19.57
2023-03-02T12:56:26.995Z,19.65
2023-03-02T12:59:32.992Z,18.90
2023-03-02T13:02:40.313Z,19.46
2023-03-02T13:05:50.169Z,19.15
2023-03-02T13:09:01.608Z,19.65
2023-03-02T13:12:08.194Z,20.04
2023-03-02T13:15:20.501Z,20.74
2023-03-02T13:18:32.167Z,19.56
2023-03-02T13:21:42.933Z,20.03
2023-03-02T13:24:54.810Z,19.08
2023-03-02T13:28:07.652Z,19.34
2023-03-02T13:31:28.081Z,23.30
2023-03-02T13:34:52.717Z,19.33
2023-03-02T13:38:07.721Z,18.27
2023-03-02T13:41:25.924Z,18.67
2023-03-02T13:44:37.632Z,24.77
2023-03-02T13:47:44.779Z,92.31
2023-03-02T13:51:03.037Z,60.11
2023-03-02T13:54:25.073Z,21.32
2023-03-02T13:57:35.743Z,24.20
2023-03-02T14:00:43.267Z,20.48
2023-03-02T14:03:49.226Z,28.29
2023-03-02T14:06:58.138Z,40.60
2023-03-02T14:10:07.344Z,33.48
2023-03-02T14:13:22.806Z,33.85
2023-03-02T14:16:28.597Z,33.67
2023-03-02T14:19:35.252Z,30.90
2023-03-02T14:22:41.063Z,28.67
2023-03-02T14:25:51.113Z,28.90
2023-03-02T14:29:05.585Z,28.27
2023-03-02T14:32:16.024Z,29.71
2023-03-02T14:35:21.963Z,27.32
2023-03-02T14:38:30.725Z,27.00
2023-03-02T14:41:52.865Z,27.34
2023-03-02T14:45:00.545Z,25.51
2023-03-02T14:48:06.859Z,24.05
2023-03-02T14:51:28.400Z,23.60
2023-03-02T14:54:43.846Z,39.54
2023-03-02T14:58:01.177Z,25.38
2023-03-02T15:01:08.624Z,23.81
2023-03-02T15:04:15.124Z,25.90
2023-03-02T15:07:27.714Z,23.45
2023-03-02T15:10:34.841Z,20.69
2023-03-02T15:13:45.724Z,21.44
2023-03-02T15:16:52.600Z,26.92
2023-03-02T15:19:58.822Z,24.73
2023-03-02T15:23:05.853Z,22.17
2023-03-02T15:26:14.920Z,21.49
2023-03-02T15:29:24.907Z,21.85
2023-03-02T15:32:30.798Z,21.79
2023-03-02T15:35:37.431Z,20.75
2023-03-02T15:38:43.449Z,22.48
2023-03-02T15:41:50.137Z,21.42
2023-03-02T15:44:58.636Z,25.04
2023-03-02T15:48:05.280Z,26.13
2023-03-02T15:51:12.940Z,40.49
2023-03-02T15:54:20.997Z,30.84
2023-03-02T15:57:26.823Z,27.84
2023-03-02T16:00:37.968Z,24.72
2023-03-02T16:03:43.842Z,23.72
2023-03-02T16:06:50.688Z,23.63
2023-03-02T16:09:56.796Z,29.80
2023-03-02T16:13:04.737Z,37.54
2023-03-02T16:16:13.553Z,42.54
2023-03-02T16:19:22.011Z,49.82
2023-03-02T16:22:28.013Z,45.24
2023-03-02T16:25:34.808Z,40.83
2023-03-02T16:28:40.700Z,40.39
2023-03-02T16:31:51.636Z,41.13
2023-03-02T16:34:58.049Z,40.52
2023-03-02T16:38:05.015Z,40.64
2023-03-02T16:41:19.219Z,39.57
2023-03-02T16:44:25.896Z,39.57
2023-03-02T16:47:34.515Z,36.94
2023-03-02T16:50:41.614Z,39.02
2023-03-02T16:53:48.229Z,35.60
2023-03-02T16:56:54.897Z,38.17
2023-03-02T17:00:05.772Z,36.06
2023-03-02T17:03:15.151Z,38.25
2023-03-02T17:06:30.296Z,51.08
2023-03-02T17:09:41.442Z,254.62
2023-03-02T17:12:50.266Z,431.56
2023-03-02T17:15:57.751Z,443.46
2023-03-02T17:19:06.208Z,330.79
2023-03-02T17:22:12.990Z,219.90
2023-03-02T17:25:19.229Z,163.42
2023-03-02T17:28:26.666Z,393.58
2023-03-02T17:31:32.584Z,239.70
2023-03-02T17:34:43.516Z,173.62
2023-03-02T17:37:49.609Z,112.24
2023-03-02T17:40:56.188Z,98.60
2023-03-02T17:44:02.610Z,97.17
2023-03-02T17:47:13.236Z,113.32
2023-03-02T17:50:22.390Z,115.72
2023-03-02T17:53:28.900Z,113.32
2023-03-02T17:56:34.824Z,115.59
2023-03-02T17:59:43.106Z,118.21
2023-03-02T18:02:49.367Z,115.38
2023-03-02T18:05:58.763Z,126.88
2023-03-02T18:09:08.204Z,111.70
2023-03-02T18:12:14.793Z,94.50
2023-03-02T18:15:20.792Z,78.70
2023-03-02T18:18:27.857Z,69.35
2023-03-02T18:21:36.889Z,83.21
2023-03-02T18:24:43.447Z,104.75
2023-03-02T18:27:49.620Z,125.15
2023-03-02T18:30:56.228Z,119.80
2023-03-02T18:34:02.177Z,117.81
2023-03-02T18:37:11.793Z,131.83
2023-03-02T18:40:18.510Z,148.16
2023-03-02T18:43:25.137Z,137.32
2023-03-02T18:46:35.058Z,163.95
2023-03-02T18:49:42.774Z,533.70
2023-03-02T18:52:53.073Z,184.92
2023-03-02T18:55:59.927Z,106.62
2023-03-02T18:59:07.391Z,96.36
2023-03-02T19:02:17.242Z,100.66
2023-03-02T19:05:27.092Z,109.20
2023-03-02T19:08:37.229Z,103.06
2023-03-02T19:11:43.154Z,107.35
2023-03-02T19:14:50.074Z,104.46
2023-03-02T19:17:57.369Z,110.57
2023-03-02T19:21:05.041Z,115.55
2023-03-02T19:24:13.773Z,109.31
2023-03-02T19:27:20.494Z,101.74
2023-03-02T19:30:30.069Z,97.10
2023-03-02T19:33:36.955Z,100.81
2023-03-02T19:36:42.900Z,86.68
2023-03-02T19:39:52.596Z,87.19
2023-03-02T19:42:58.820Z,100.16
2023-03-02T19:46:05.616Z,122.38
2023-03-02T19:49:11.599Z,106.16
2023-03-02T19:52:18.594Z,97.75
2023-03-02T19:55:28.952Z,96.58
2023-03-02T19:58:35.945Z,104.78
2023-03-02T20:01:42.245Z,102.74
2023-03-02T20:04:51.078Z,107.92
2023-03-02T20:07:58.027Z,109.35
2023-03-02T20:11:07.957Z,104.71
2023-03-02T20:14:27.625Z,109.32
2023-03-02T20:17:39.750Z,109.32
2023-03-02T20:20:47.403Z,112.23
2023-03-02T20:23:54.752Z,109.58
2023-03-02T20:27:03.727Z,104.95
2023-03-02T20:30:21.631Z,104.21
2023-03-02T20:33:32.456Z,103.49
2023-03-02T20:36:40.988Z,108.64
2023-03-02T20:39:49.869Z,105.28
2023-03-02T20:42:59.254Z,112.98
2023-03-02T20:46:05.969Z,104.87
2023-03-02T20:49:15.992Z,118.60
2023-03-02T20:52:21.830Z,122.58
2023-03-02T20:55:29.822Z,133.35
2023-03-02T20:58:41.315Z,122.34
2023-03-02T21:01:48.185Z,111.52
2023-03-02T21:04:54.429Z,112.20
2023-03-02T21:08:01.608Z,111.12
2023-03-02T21:11:08.098Z,109.31
2023-03-02T21:14:17.565Z,118.44
2023-03-02T21:17:24.471Z,114.89
2023-03-02T21:20:36.040Z,121.15
2023-03-02T21:23:42.747Z,167.65
2023-03-02T21:26:52.279Z,157.64
2023-03-02T21:30:03.456Z,152.51
2023-03-02T21:33:10.572Z,173.59
2023-03-02T21:36:22.360Z,158.31
2023-03-02T21:39:29.444Z,152.38
2023-03-02T21:42:35.317Z,165.09
2023-03-02T21:45:45.300Z,151.74
2023-03-02T21:48:53.625Z,140.15
2023-03-02T21:52:00.756Z,142.09
2023-03-02T21:55:06.976Z,141.62
2023-03-02T21:58:13.637Z,138.40
2023-03-02T22:01:22.251Z,144.30
2023-03-02T22:04:28.939Z,137.28
2023-03-02T22:07:35.075Z,128.10
2023-03-02T22:10:45.631Z,127.21
2023-03-02T22:13:54.077Z,130.09
2023-03-02T22:17:03.695Z,131.73
2023-03-02T22:20:20.596Z,137.40
2023-03-02T22:23:29.431Z,130.85
2023-03-02T22:26:35.851Z,145.79
2023-03-02T22:29:46.859Z,129.60
2023-03-02T22:32:58.385Z,124.26
2023-03-02T22:36:19.118Z,122.69
2023-03-02T22:39:36.355Z,123.06
2023-03-02T22:42:44.036Z,128.34
2023-03-02T22:45:51.195Z,129.55
2023-03-02T22:49:02.606Z,133.66
2023-03-02T22:52:21.170Z,133.90
2023-03-02T22:55:45.137Z,134.76
2023-03-02T22:58:53.739Z,135.39
2023-03-02T23:02:05.435Z,133.21
2023-03-02T23:05:29.846Z,132.82
2023-03-02T23:08:36.598Z,131.92
2023-03-02T23:11:45.118Z,137.76
2023-03-02T23:14:54.546Z,137.54
2023-03-02T23:18:01.608Z,141.76
2023-03-02T23:21:24.174Z,129.50
2023-03-02T23:24:30.125Z,129.81
2023-03-02T23:27:36.790Z,132.05
2023-03-02T23:30:42.763Z,129.64
2023-03-02T23:33:55.808Z,126.39
2023-03-02T23:37:10.240Z,117.83
2023-03-02T23:40:23.101Z,112.06
2023-03-02T23:43:29.266Z,111.70
2023-03-02T23:46:36.714Z,111.47
2023-03-02T23:49:42.617Z,108.16
2023-03-02T23:52:51.858Z,107.24
2023-03-02T23:55:58.815Z,117.06
2023-03-02T23:59:05.545Z,116.45
